Station: Rottnest Island  

  Atmospheric Gas Attenuation - ITU Rec 676-11   ----------------- dB/100km -----------------
Date Time Temp RH % AH g/m3 Dew Point Wind Direction Speed kph Gust kph Barometer mB Rainfall Since 9am 24GHz 47GHz 76GHz 122GHz 134GHz 241GHz
06/05 15:50 20.7 57 10.26 11.9 15 19 1027.4 0 22.7 27.0 43.4 114.0 111.9 386.6
06/05 15:40 20.4 57 10.08 11.6 13 15 1027.4 0 22.4 26.8 42.9 112.5 110.0 380.0
06/05 15:30 20.5 55 9.79 11.2 17 19 1027.4 0 21.8 26.4 41.7 109.4 106.2 366.6
06/05 15:20 20.7 56 10.08 11.6 17 19 1027.4 0 22.4 26.7 42.7 112.1 109.6 378.5
06/05 15:10 20.6 57 10.2 11.8 17 19 1027.4 0 22.6 27.0 43.2 113.5 111.3 384.4
06/05 15:00 21.2 50 9.27 10.4 17 22 1027.4 0 20.6 25.4 39.4 103.2 98.8 340.7
06/05 14:50 21.3 50 9.32 10.5 11 17 1027.4 0 20.7 25.4 39.5 103.6 99.3 342.4
06/05 14:40 21.4 48 9 9.9 13 19 1027.4 0 20.0 24.9 38.3 100.3 95.2 328.2
06/05 14:30 21.3 49 9.13 10.2 17 22 1027.4 0 20.3 25.1 38.8 101.7 97.0 334.2
06/05 14:20 21.5 50 9.43 10.6 15 20 1027.4 0 20.9 25.5 39.8 104.4 100.4 346.3
06/05 14:10 21.1 50 9.21 10.3 15 20 1027.5 0 20.5 25.3 39.2 102.7 98.2 338.5
06/05 14:00 21 51 9.34 10.5 17 26 1027.5 0 20.8 25.5 39.7 104.2 99.9 344.6
06/05 13:50 20.6 53 9.48 10.7 17 20 1027.6 0 21.1 25.9 40.5 106.1 102.2 352.5
06/05 13:40 21 54 9.89 11.3 13 17 1027.7 0 21.9 26.4 41.8 109.8 106.8 368.8
06/05 13:30 20.8 55 9.96 11.4 17 24 1027.8 0 22.1 26.5 42.2 110.8 108.0 372.8
06/05 13:20 20.4 54 9.55 10.8 15 20 1027.7 0 21.3 26.0 40.8 107.1 103.3 356.5
06/05 13:10 21 54 9.89 11.3 15 19 1027.8 0 21.9 26.4 41.8 109.8 106.8 368.8
06/05 13:00 20.3 55 9.67 11 15 20 1027.9 0 21.5 26.2 41.4 108.5 105.0 362.3
06/05 12:50 20.1 55 9.56 10.8 13 19 1028 0 21.3 26.1 41.0 107.6 103.9 358.3
06/05 12:40 20 56 9.68 11 17 20 1028.1 0 21.5 26.4 41.6 109.0 105.5 364.2
06/05 12:30 20 55 9.5 10.7 17 24 1028.2 0 21.2 26.1 40.9 107.2 103.3 356.2
06/05 12:20 19.5 56 9.4 10.5 19 22 1028.4 0 21.0 26.1 40.7 106.8 102.7 354.0
06/05 12:10 19.5 57 9.57 10.8 20 24 1028.5 0 21.3 26.3 41.4 108.6 104.8 361.6
06/05 12:00 19.3 57 9.45 10.6 19 26 1028.8 0 21.1 26.2 41.1 107.7 103.6 357.3
06/05 11:50 19.2 58 9.56 10.7 19 24 1028.8 0 21.3 26.4 41.5 108.9 105.1 362.6
06/05 11:40 18.9 58 9.4 10.5 22 26 1028.8 0 21.0 26.3 41.1 107.7 103.5 356.8
06/05 11:30 18.5 59 9.33 10.3 20 28 1029 0 20.9 26.3 41.0 107.5 103.1 355.5
06/05 11:20 18.7 60 9.61 10.8 19 22 1029 0 21.5 26.7 42.0 110.2 106.5 367.3
06/05 11:10 18.2 60 9.33 10.3 22 26 1029.1 0 20.9 26.4 41.2 107.9 103.5 356.9
06/05 11:00 18 62 9.52 10.6 20 30 1029.3 0 21.3 26.7 42.0 110.2 106.3 366.5
06/05 10:50 17.5 62 9.24 10.1 22 28 1029.2 0 20.7 26.4 41.2 108.0 103.3 356.0
06/05 10:40 17.3 63 9.28 10.2 26 30 1029.1 0 20.8 26.6 41.4 108.6 104.1 358.7
06/05 10:30 17.5 64 9.54 10.6 24 33 1029.3 0 21.4 26.9 42.4 111.1 107.2 369.7
06/05 10:20 17.3 63 9.28 10.2 24 32 1029.3 0 20.8 26.6 41.4 108.7 104.1 358.8
06/05 10:10 17.3 64 9.43 10.4 22 28 1029.3 0 21.2 26.8 42.0 110.3 106.1 365.6
06/05 10:00 16.8 64 9.15 10 30 39 1029.4 0 20.6 26.5 41.2 108.0 103.1 355.1
06/05 09:50 16.8 64 9.15 10 28 35 1029.3 0 20.6 26.5 41.2 108.0 103.1 355.1
06/05 09:40 16.8 65 9.29 10.2 24 30 1029.3 0 20.9 26.7 41.7 109.5 104.9 361.5
06/05 09:30 16.9 67 9.64 10.7 26 35 1029.4 0 21.6 27.3 43.1 113.1 109.4 377.2
06/05 09:20 16.4 66 9.21 10 30 37 1029.3 0 20.7 26.7 41.6 109.2 104.4 359.6
06/05 09:00 16.2 69 9.51 10.5 26 35 1029.3 0 21.4 27.3 42.9 112.7 108.6 374.5
06/05 07:40 14.5 73 9.08 9.7 13 20 1028.5 0 20.6 27.0 42.1 110.3 105.2 362.1
06/05 07:30 14.3 74 9.09 9.7 15 30 1028.3 0 20.6 27.1 42.2 110.7 105.5 363.4
06/05 07:20 14.3 75 9.21 9.9 17 19 1028.1 0 20.8 27.3 42.7 112.0 107.2 369.0
06/05 07:10 14.2 75 9.16 9.8 15 20 1028 0 20.7 27.3 42.5 111.6 106.6 367.1
06/05 07:00 14.2 76 9.28 10 19 24 1027.9 0 21.0 27.4 43.0 112.9 108.2 372.8
06/05 06:50 14 77 9.29 10 19 22 1027.8 0 21.0 27.5 43.2 113.2 108.6 374.2
06/05 06:40 14.1 77 9.35 10.1 19 20 1027.7 0 21.2 27.6 43.4 113.8 109.3 376.5
06/05 06:30 14.1 76 9.22 9.9 20 26 1027.6 0 20.9 27.4 42.8 112.3 107.5 370.3
06/05 06:20 14.1 75 9.1 9.7 20 24 1027.5 0 20.6 27.2 42.3 111.0 105.9 364.6
06/05 06:10 14.1 75 9.1 9.7 22 28 1027.4 0 20.6 27.2 42.3 111.0 105.9 364.5
06/05 06:00 14.1 75 9.1 9.7 19 26 1027.4 0 20.6 27.2 42.3 111.0 105.9 364.5
06/05 05:50 14.2 74 9.04 9.6 22 28 1027.4 0 20.5 27.0 42.0 110.2 104.9 361.2
06/05 05:40 14.3 74 9.09 9.7 19 22 1027.3 0 20.6 27.1 42.2 110.6 105.5 363.1
06/05 05:30 14.3 74 9.09 9.7 20 30 1027.2 0 20.6 27.1 42.2 110.6 105.5 363.1
06/05 05:20 14.3 73 8.97 9.5 20 24 1027.1 0 20.3 26.9 41.7 109.2 103.8 357.4
06/05 05:10 14.3 72 8.85 9.3 22 28 1027 0 20.1 26.7 41.2 107.9 102.2 351.8
06/05 05:00 14.4 72 8.9 9.4 22 32 1026.9 0 20.2 26.7 41.3 108.3 102.7 353.6
06/05 04:50 14.3 73 8.97 9.5 22 26 1026.9 0 20.3 26.9 41.7 109.2 103.8 357.4
06/05 04:40 14.3 73 8.97 9.5 19 24 1026.9 0 20.3 26.9 41.7 109.2 103.8 357.4
06/05 04:30 14.3 72 8.85 9.3 20 32 1026.9 0 20.1 26.7 41.2 107.9 102.2 351.7
06/05 04:20 14.6 71 8.88 9.4 24 30 1026.8 0 20.1 26.6 41.1 107.8 102.2 351.8
06/05 04:10 14.6 71 8.88 9.4 20 26 1026.8 0 20.1 26.6 41.1 107.8 102.2 351.8
06/05 04:00 14.7 71 8.94 9.5 22 30 1026.8 0 20.3 26.7 41.3 108.3 102.9 354.1
06/05 03:50 14.7 70 8.81 9.3 19 24 1026.8 0 20.0 26.5 40.8 106.9 101.1 348.1
06/05 03:40 14.9 69 8.79 9.3 22 24 1026.8 0 19.9 26.4 40.6 106.4 100.6 346.2
06/05 03:30 14.9 69 8.79 9.3 20 30 1026.8 0 19.9 26.4 40.6 106.4 100.6 346.2
06/05 03:20 15.1 68 8.77 9.2 22 26 1026.8 0 19.9 26.3 40.4 106.0 100.1 344.5
06/05 03:10 15 68 8.72 9.1 19 20 1026.7 0 19.8 26.2 40.3 105.5 99.6 342.6
06/05 03:00 15.2 67 8.7 9.1 19 26 1026.7 0 19.7 26.2 40.1 105.1 99.0 340.8
06/05 02:50 15.2 66 8.57 8.9 19 24 1026.7 0 19.4 25.9 39.6 103.7 97.3 334.8
06/05 02:40 15.3 66 8.62 9 22 24 1026.7 0 19.5 26.0 39.7 104.1 97.9 336.7
06/05 02:30 15.4 66 8.67 9.1 20 32 1026.7 0 19.6 26.0 39.9 104.5 98.4 338.5
06/05 02:20 15.4 66 8.67 9.1 22 26 1026.8 0 19.6 26.0 39.9 104.5 98.4 338.6
06/05 02:10 15.7 65 8.7 9.1 24 32 1026.7 0 19.7 26.0 39.8 104.4 98.4 338.6
06/05 02:00 15.9 64 8.67 9.1 24 35 1026.5 0 19.6 25.9 39.6 103.8 97.7 336.3
06/05 01:50 16.2 63 8.69 9.2 26 33 1026.5 0 19.6 25.8 39.5 103.6 97.6 336.0
06/05 01:40 16.2 64 8.83 9.4 22 26 1026.5 0 19.9 26.1 40.1 105.1 99.5 342.3
06/05 01:30 16.4 64 8.93 9.6 24 39 1026.4 0 20.1 26.2 40.4 105.9 100.5 346.0
06/05 01:20 16.5 64 8.99 9.7 28 33 1026.4 0 20.3 26.2 40.6 106.4 101.1 348.3
06/05 01:10 16.5 64 8.99 9.7 24 30 1026.3 0 20.3 26.2 40.6 106.4 101.1 348.3
06/05 01:00 16.5 66 9.27 10.1 22 30 1026.3 0 20.9 26.7 41.7 109.3 104.8 361.1
06/05 00:50 16.5 66 9.27 10.1 24 30 1026.4 0 20.9 26.7 41.7 109.3 104.8 361.1
06/05 00:40 16.6 65 9.18 10 19 28 1026.4 0 20.7 26.5 41.3 108.3 103.5 356.5
06/05 00:30 16.7 64 9.09 9.9 20 30 1026.4 0 20.5 26.3 40.9 107.2 102.2 352.0
06/05 00:20 16.8 64 9.15 10 20 26 1026.2 0 20.6 26.4 41.0 107.6 102.8 354.2
06/05 00:10 16.8 66 9.44 10.4 22 28 1026.2 0 21.2 26.9 42.2 110.7 106.6 367.5
06/05 00:00 16.7 69 9.81 11 17 22 1026.2 0 22.0 27.5 43.8 114.9 111.7 385.2
05/05 23:50 16.9 67 9.64 10.7 19 24 1026.2 0 21.6 27.1 43.0 112.7 109.1 376.3
05/05 23:40 17.1 67 9.75 10.9 19 24 1026.2 0 21.9 27.3 43.3 113.6 110.3 380.4
05/05 23:30 17.2 68 9.96 11.2 19 26 1026.3 0 22.3 27.6 44.1 115.8 113.0 389.7
05/05 23:20 17.1 70 10.19 11.6 17 20 1026.3 0 22.8 28.0 45.1 118.4 116.2 401.0
05/05 23:10 17.5 67 9.99 11.3 19 24 1026.2 0 22.3 27.5 44.0 115.6 112.9 389.6
05/05 23:00 17.8 69 10.47 12 24 32 1026.1 0 23.3 28.2 45.8 120.4 118.9 410.5
05/05 22:50 17.9 68 10.38 11.9 28 32 1026.1 0 23.1 28.0 45.4 119.2 117.5 405.8
05/05 22:40 18.2 70 10.88 12.6 28 32 1026.1 0 24.2 28.8 47.3 124.3 123.8 427.7
05/05 22:30 18.2 70 10.88 12.6 24 33 1026.1 0 24.2 28.8 47.3 124.3 123.8 427.7
05/05 22:20 18.1 72 11.12 13 22 28 1026.2 0 24.7 29.2 48.3 127.1 127.2 439.7
05/05 22:10 18.2 71 11.03 12.9 30 33 1026.2 0 24.5 29.0 47.9 125.9 125.8 434.9
05/05 22:00 18.2 71 11.03 12.9 26 37 1026.3 0 24.5 29.0 47.9 125.9 125.8 434.9

Last Refresh: 06-May-2026 17:31:08

Bureau of Meteorology